createdAt,value
2017-12-13T00:00:50.017Z,20.90
2017-12-13T00:03:18.350Z,22.67
2017-12-13T00:05:46.699Z,19.90
2017-12-13T00:08:15.020Z,20.67
2017-12-13T00:10:43.328Z,21.97
2017-12-13T00:13:11.622Z,21.60
2017-12-13T00:15:39.922Z,21.37
2017-12-13T00:18:08.999Z,21.83
2017-12-13T00:20:37.300Z,22.20
2017-12-13T00:23:05.611Z,20.27
2017-12-13T00:25:33.912Z,20.37
2017-12-13T00:28:03.050Z,22.67
2017-12-13T00:30:31.362Z,20.13
2017-12-13T00:32:59.668Z,22.20
2017-12-13T00:35:27.994Z,21.13
2017-12-13T00:37:56.303Z,23.73
2017-12-13T00:40:24.613Z,21.60
2017-12-13T00:42:52.929Z,20.60
2017-12-13T00:45:21.225Z,20.50
2017-12-13T00:47:50.310Z,19.67
2017-12-13T00:50:18.614Z,20.77
2017-12-13T00:52:47.700Z,20.23
2017-12-13T00:55:16.813Z,21.00
2017-12-13T00:57:46.065Z,20.90
2017-12-13T01:00:15.218Z,21.27
2017-12-13T01:02:44.310Z,21.03
2017-12-13T01:05:13.394Z,21.20
2017-12-13T01:07:41.736Z,20.20
2017-12-13T01:10:10.042Z,20.40
2017-12-13T01:12:38.348Z,18.17
2017-12-13T01:15:06.670Z,19.33
2017-12-13T01:17:34.974Z,18.43
2017-12-13T01:20:03.327Z,19.10
2017-12-13T01:22:31.640Z,20.67
2017-12-13T01:25:00.016Z,19.90
2017-12-13T01:27:28.307Z,20.40
2017-12-13T01:29:56.669Z,19.50
2017-12-13T01:32:24.980Z,20.73
2017-12-13T01:34:53.288Z,19.50
2017-12-13T01:37:22.378Z,19.83
2017-12-13T01:39:50.712Z,19.30
2017-12-13T01:42:19.035Z,19.13
2017-12-13T01:44:47.356Z,19.60
2017-12-13T01:47:15.668Z,20.40
2017-12-13T01:49:43.971Z,21.80
2017-12-13T01:52:12.933Z,20.67
2017-12-13T01:54:41.288Z,19.23
2017-12-13T01:57:10.355Z,18.77
2017-12-13T01:59:38.678Z,20.17
2017-12-13T02:02:06.985Z,19.60
2017-12-13T02:04:35.317Z,19.97
2017-12-13T02:07:04.387Z,20.00
2017-12-13T02:09:33.457Z,19.63
2017-12-13T02:12:01.786Z,18.67
2017-12-13T02:14:30.106Z,19.20
2017-12-13T02:16:58.426Z,17.67
2017-12-13T02:19:26.725Z,18.90
2017-12-13T02:21:55.054Z,18.47
2017-12-13T02:24:23.381Z,18.70
2017-12-13T02:26:51.706Z,17.97
2017-12-13T02:29:20.796Z,17.60
2017-12-13T02:31:49.924Z,18.57
2017-12-13T02:34:18.225Z,18.27
2017-12-13T02:36:46.556Z,18.53
2017-12-13T02:39:15.732Z,17.57
2017-12-13T02:41:44.057Z,18.00
2017-12-13T02:44:12.377Z,16.43
2017-12-13T02:46:40.701Z,16.47
2017-12-13T02:49:09.814Z,16.77
2017-12-13T02:51:38.919Z,17.57
2017-12-13T02:54:07.247Z,15.60
2017-12-13T02:56:36.337Z,16.30
2017-12-13T02:59:04.651Z,16.20
2017-12-13T03:01:33.061Z,15.97
2017-12-13T03:04:02.145Z,16.57
2017-12-13T03:06:31.212Z,16.60
2017-12-13T03:08:59.537Z,15.07
2017-12-13T03:11:27.863Z,15.77
2017-12-13T03:13:56.174Z,16.60
2017-12-13T03:16:24.539Z,16.00
2017-12-13T03:18:52.857Z,16.40
2017-12-13T03:21:21.979Z,14.80
2017-12-13T03:23:50.286Z,17.23
2017-12-13T03:26:18.594Z,16.80
2017-12-13T03:28:46.907Z,15.77
2017-12-13T03:31:15.982Z,16.73
2017-12-13T03:33:44.311Z,15.40
2017-12-13T03:36:12.625Z,16.00
2017-12-13T03:38:40.933Z,16.03
2017-12-13T03:41:09.261Z,17.60
2017-12-13T03:43:37.609Z,16.63
2017-12-13T03:46:06.700Z,17.50
2017-12-13T03:48:35.032Z,17.07
2017-12-13T03:51:03.410Z,17.30
2017-12-13T03:53:31.728Z,17.73
2017-12-13T03:56:00.075Z,17.87
2017-12-13T03:58:28.375Z,18.83
2017-12-13T04:00:56.675Z,18.23
2017-12-13T04:03:25.003Z,18.63
2017-12-13T04:05:53.323Z,18.93
2017-12-13T04:08:21.612Z,18.63
2017-12-13T04:10:49.929Z,19.27
2017-12-13T04:13:19.029Z,18.00
2017-12-13T04:15:48.097Z,20.10
2017-12-13T04:18:16.409Z,20.80
2017-12-13T04:20:45.487Z,19.73
2017-12-13T04:23:13.827Z,19.87
2017-12-13T04:25:42.125Z,20.87
2017-12-13T04:28:10.426Z,21.13
2017-12-13T04:30:38.739Z,21.33
2017-12-13T04:33:07.832Z,20.07
2017-12-13T04:35:36.915Z,18.80
2017-12-13T04:38:05.247Z,20.80
2017-12-13T04:40:33.543Z,19.70
2017-12-13T04:43:01.867Z,20.60
2017-12-13T04:45:30.177Z,22.20
2017-12-13T04:47:59.242Z,20.13
2017-12-13T04:50:27.567Z,20.40
2017-12-13T04:52:55.873Z,19.47
2017-12-13T04:55:24.172Z,18.53
2017-12-13T04:57:52.529Z,20.20
2017-12-13T05:00:20.829Z,19.40
2017-12-13T05:02:49.139Z,19.97
2017-12-13T05:05:17.462Z,19.00
2017-12-13T05:07:45.765Z,18.30
2017-12-13T05:10:14.089Z,18.67
2017-12-13T05:12:42.411Z,17.23
2017-12-13T05:15:10.762Z,17.67
2017-12-13T05:17:39.838Z,18.87
2017-12-13T05:20:08.147Z,17.67
2017-12-13T05:22:37.225Z,17.70
2017-12-13T05:25:05.529Z,17.27
2017-12-13T05:27:34.603Z,18.83
2017-12-13T05:30:02.931Z,18.37
2017-12-13T05:32:31.251Z,19.00
2017-12-13T05:34:59.559Z,19.27
2017-12-13T05:37:28.643Z,18.37
2017-12-13T05:39:56.945Z,18.13
2017-12-13T05:42:26.046Z,19.33
2017-12-13T05:44:55.133Z,19.73
2017-12-13T05:47:23.455Z,17.77
2017-12-13T05:49:51.753Z,19.40
2017-12-13T05:52:20.068Z,17.20
2017-12-13T05:54:48.399Z,20.37
2017-12-13T05:57:16.689Z,18.73
2017-12-13T05:59:45.006Z,18.30
2017-12-13T06:02:13.325Z,20.87
2017-12-13T06:04:42.392Z,20.77
2017-12-13T06:07:10.717Z,19.73
2017-12-13T06:09:39.043Z,20.73
2017-12-13T06:12:07.373Z,20.90
2017-12-13T06:14:35.665Z,19.33
2017-12-13T06:17:03.995Z,20.03
2017-12-13T06:19:32.301Z,19.93
2017-12-13T06:22:00.618Z,20.67
2017-12-13T06:24:28.915Z,20.13
2017-12-13T06:26:57.227Z,23.00
2017-12-13T06:29:25.542Z,19.93
2017-12-13T06:31:54.611Z,20.60
2017-12-13T06:34:22.943Z,20.43
2017-12-13T06:36:51.235Z,21.97
2017-12-13T06:39:19.547Z,22.40
2017-12-13T06:41:47.853Z,21.37
2017-12-13T06:44:16.161Z,20.20
2017-12-13T06:46:44.470Z,18.70
2017-12-13T06:49:12.780Z,21.07
2017-12-13T06:51:41.081Z,19.53
2017-12-13T06:54:10.154Z,20.57
2017-12-13T06:56:38.461Z,20.93
2017-12-13T06:59:07.525Z,19.07
2017-12-13T07:01:35.841Z,19.53
2017-12-13T07:04:04.934Z,18.10
2017-12-13T07:06:34.009Z,20.03
2017-12-13T07:09:02.373Z,17.40
2017-12-13T07:11:30.664Z,17.73
2017-12-13T07:13:58.990Z,18.53
2017-12-13T07:16:28.056Z,19.07
2017-12-13T07:18:56.624Z,18.00
2017-12-13T07:21:24.929Z,18.80
2017-12-13T07:23:53.232Z,16.27
2017-12-13T07:26:22.310Z,17.20
2017-12-13T07:28:51.084Z,17.83
2017-12-13T07:31:20.169Z,17.30
2017-12-13T07:33:48.528Z,15.77
2017-12-13T07:36:16.845Z,16.40
2017-12-13T07:38:45.145Z,16.70
2017-12-13T07:41:13.454Z,16.60
2017-12-13T07:43:42.567Z,16.70
2017-12-13T07:46:10.888Z,16.23
2017-12-13T07:48:39.184Z,17.43
2017-12-13T07:51:07.491Z,17.67
2017-12-13T07:53:35.798Z,16.33
2017-12-13T07:56:04.101Z,17.70
2017-12-13T07:58:32.410Z,16.40
2017-12-13T08:01:00.720Z,17.90
2017-12-13T08:03:29.780Z,16.77
2017-12-13T08:05:58.081Z,19.53
2017-12-13T08:08:26.420Z,17.70
2017-12-13T08:10:54.753Z,17.77
2017-12-13T08:13:23.860Z,17.57
2017-12-13T08:15:52.971Z,17.30
2017-12-13T08:18:22.044Z,16.87
2017-12-13T08:20:51.086Z,15.60
2017-12-13T08:23:19.406Z,17.47
2017-12-13T08:25:47.710Z,17.50
2017-12-13T08:28:16.015Z,16.43
2017-12-13T08:30:45.098Z,17.93
2017-12-13T08:33:13.566Z,16.20
2017-12-13T08:35:41.866Z,16.70
2017-12-13T08:38:10.171Z,17.77
2017-12-13T08:40:38.476Z,18.60
2017-12-13T08:43:06.786Z,16.70
2017-12-13T08:45:35.100Z,15.13
2017-12-13T08:48:04.348Z,16.60
2017-12-13T08:50:32.667Z,18.50
2017-12-13T08:53:00.984Z,19.30
2017-12-13T08:55:30.067Z,19.60
2017-12-13T08:57:59.159Z,18.70
2017-12-13T09:00:27.468Z,19.33
2017-12-13T09:02:55.790Z,19.90
2017-12-13T09:05:24.117Z,19.80
2017-12-13T09:07:53.188Z,22.37
2017-12-13T09:10:21.515Z,20.20
2017-12-13T09:12:49.835Z,20.57
2017-12-13T09:15:18.146Z,18.30
2017-12-13T09:17:46.470Z,19.30
2017-12-13T09:20:14.825Z,19.40
2017-12-13T09:22:43.887Z,21.43
2017-12-13T09:25:13.008Z,20.73
2017-12-13T09:27:41.317Z,19.00
2017-12-13T09:30:09.814Z,21.17
2017-12-13T09:32:38.124Z,19.30
2017-12-13T09:35:06.442Z,20.20
2017-12-13T09:37:35.520Z,19.63
2017-12-13T09:40:03.825Z,18.70
2017-12-13T09:42:32.931Z,19.47
2017-12-13T09:45:01.995Z,18.17
2017-12-13T09:47:30.309Z,18.70
2017-12-13T09:49:59.375Z,19.13
2017-12-13T09:52:27.678Z,19.20
2017-12-13T09:54:55.987Z,19.63
2017-12-13T09:57:25.046Z,19.17
2017-12-13T09:59:53.359Z,18.80
2017-12-13T10:02:22.423Z,43.17
2017-12-13T10:04:50.717Z,18.23
2017-12-13T10:07:19.030Z,19.07
2017-12-13T10:09:47.338Z,17.30
2017-12-13T10:12:15.651Z,16.70
2017-12-13T10:14:43.948Z,15.50
2017-12-13T10:17:12.255Z,16.17
2017-12-13T10:19:40.566Z,17.10
2017-12-13T10:22:08.875Z,17.47
2017-12-13T10:24:37.203Z,16.53
2017-12-13T10:27:05.516Z,18.10
2017-12-13T10:29:33.812Z,17.33
2017-12-13T10:32:02.133Z,18.80
2017-12-13T10:34:31.205Z,18.60
2017-12-13T10:37:00.272Z,17.37
2017-12-13T10:39:28.571Z,18.37
2017-12-13T10:41:58.504Z,18.10
2017-12-13T10:44:26.952Z,17.93
2017-12-13T10:46:55.508Z,17.10
2017-12-13T10:49:24.574Z,18.00
2017-12-13T10:51:52.885Z,16.60
2017-12-13T10:54:21.941Z,17.43
2017-12-13T10:56:50.252Z,14.93
2017-12-13T10:59:19.335Z,16.27
2017-12-13T11:01:47.629Z,16.10
2017-12-13T11:04:16.784Z,14.80
2017-12-13T11:06:45.149Z,15.67
2017-12-13T11:09:13.462Z,15.93
2017-12-13T11:11:41.760Z,13.90
2017-12-13T11:14:10.074Z,14.57
2017-12-13T11:16:39.166Z,15.70
2017-12-13T11:19:08.232Z,13.07
2017-12-13T11:21:36.547Z,13.20
2017-12-13T11:24:05.665Z,12.80
2017-12-13T11:26:33.958Z,13.17
2017-12-13T11:29:02.651Z,13.10
2017-12-13T11:31:30.977Z,13.03
2017-12-13T11:33:59.269Z,13.37
2017-12-13T11:36:27.580Z,14.10
2017-12-13T11:38:55.924Z,13.40
2017-12-13T11:41:24.238Z,14.23
2017-12-13T11:43:53.308Z,14.27
2017-12-13T11:46:21.609Z,15.30
2017-12-13T11:48:50.684Z,14.97
2017-12-13T11:51:19.006Z,15.80
2017-12-13T11:53:47.336Z,16.50
2017-12-13T11:56:15.645Z,15.17
2017-12-13T11:58:44.734Z,14.27
2017-12-13T12:01:13.032Z,15.93
2017-12-13T12:03:42.086Z,17.27
2017-12-13T12:06:11.232Z,16.60
2017-12-13T12:08:40.302Z,18.10
2017-12-13T12:11:08.626Z,19.37
2017-12-13T12:13:37.421Z,19.10
2017-12-13T12:16:05.733Z,19.10
2017-12-13T12:18:34.285Z,21.33
2017-12-13T12:21:03.404Z,20.03
2017-12-13T12:23:32.456Z,22.23
2017-12-13T12:26:00.765Z,22.20
2017-12-13T12:28:29.830Z,25.13
2017-12-13T12:30:58.122Z,27.10
2017-12-13T12:33:26.448Z,26.00
2017-12-13T12:35:54.744Z,27.60
2017-12-13T12:38:23.042Z,25.50
2017-12-13T12:40:51.372Z,26.17
2017-12-13T12:43:20.444Z,24.50
2017-12-13T12:45:48.750Z,24.23
2017-12-13T12:48:17.814Z,23.00
2017-12-13T12:50:46.118Z,21.10
2017-12-13T12:53:15.205Z,21.60
2017-12-13T12:55:43.522Z,23.60
2017-12-13T12:58:11.842Z,20.60
2017-12-13T13:00:40.140Z,21.20
2017-12-13T13:03:08.446Z,18.53
2017-12-13T13:05:37.502Z,18.13
2017-12-13T13:08:05.795Z,16.00
2017-12-13T13:10:34.112Z,16.70
2017-12-13T13:13:03.234Z,15.97
2017-12-13T13:15:31.518Z,17.83
2017-12-13T13:17:59.805Z,16.53
2017-12-13T13:20:28.439Z,16.50
2017-12-13T13:22:56.723Z,16.50
2017-12-13T13:25:25.064Z,15.80
2017-12-13T13:27:53.375Z,16.50
2017-12-13T13:30:21.696Z,16.40
2017-12-13T13:32:50.857Z,14.63
2017-12-13T13:35:19.106Z,14.07
2017-12-13T13:37:47.409Z,12.50
2017-12-13T13:40:15.779Z,12.47
2017-12-13T13:42:44.089Z,11.90
2017-12-13T13:45:12.457Z,11.80
2017-12-13T13:47:40.805Z,10.17
2017-12-13T13:50:09.099Z,9.90
2017-12-13T13:52:37.407Z,9.17
2017-12-13T13:55:05.724Z,10.43
2017-12-13T13:57:35.535Z,9.10
2017-12-13T14:00:04.584Z,8.80
2017-12-13T14:02:32.873Z,10.30
2017-12-13T14:05:01.212Z,8.93
2017-12-13T14:07:29.562Z,8.93
2017-12-13T14:09:57.874Z,7.83
2017-12-13T14:12:26.922Z,6.80
2017-12-13T14:14:55.216Z,6.30
2017-12-13T14:17:23.512Z,8.30
2017-12-13T14:19:51.819Z,6.87
2017-12-13T14:22:20.112Z,5.57
2017-12-13T14:24:48.420Z,6.10
2017-12-13T14:27:16.745Z,7.40
2017-12-13T14:29:45.833Z,6.10
2017-12-13T14:32:14.919Z,5.80
2017-12-13T14:34:43.246Z,5.73
2017-12-13T14:37:11.545Z,6.43
2017-12-13T14:39:39.867Z,5.87
2017-12-13T14:42:08.169Z,6.33
2017-12-13T14:44:37.301Z,5.90
2017-12-13T14:47:05.687Z,6.77
2017-12-13T14:49:33.993Z,6.77
2017-12-13T14:52:02.323Z,6.40
2017-12-13T14:54:31.377Z,8.07
2017-12-13T14:56:59.679Z,7.13
2017-12-13T14:59:27.978Z,7.43
2017-12-13T15:01:57.062Z,7.60
2017-12-13T15:04:25.365Z,8.23
2017-12-13T15:06:54.449Z,8.13
2017-12-13T15:09:22.755Z,6.63
2017-12-13T15:11:51.811Z,8.50
2017-12-13T15:14:20.108Z,7.70
2017-12-13T15:16:48.430Z,6.70
2017-12-13T15:19:16.720Z,6.37
2017-12-13T15:21:45.633Z,8.07
2017-12-13T15:24:13.960Z,7.23
2017-12-13T15:26:43.096Z,9.17
2017-12-13T15:29:11.395Z,6.10
2017-12-13T15:31:39.695Z,6.27
2017-12-13T15:34:07.997Z,8.37
2017-12-13T15:36:36.293Z,8.83
2017-12-13T15:39:05.347Z,9.17
2017-12-13T15:41:33.641Z,8.90
2017-12-13T15:44:01.963Z,9.30
2017-12-13T15:46:31.043Z,13.10
2017-12-13T15:48:59.364Z,14.03
2017-12-13T15:51:27.681Z,14.80
2017-12-13T15:53:56.009Z,15.43
2017-12-13T15:56:24.303Z,15.37
2017-12-13T15:58:52.616Z,15.60
2017-12-13T16:01:20.921Z,15.57
2017-12-13T16:03:49.237Z,15.50
2017-12-13T16:06:17.530Z,14.73
2017-12-13T16:08:45.835Z,14.10
2017-12-13T16:11:14.138Z,13.87
2017-12-13T16:13:42.442Z,12.73
2017-12-13T16:16:11.557Z,14.03
2017-12-13T16:18:39.872Z,12.80
2017-12-13T16:21:08.175Z,11.77
2017-12-13T16:23:36.492Z,12.53
2017-12-13T16:26:05.600Z,14.03
2017-12-13T16:28:35.315Z,12.80
2017-12-13T16:31:04.431Z,12.80
2017-12-13T16:33:32.739Z,12.17
2017-12-13T16:36:01.068Z,11.87
2017-12-13T16:38:30.124Z,11.53
2017-12-13T16:40:58.443Z,12.20
2017-12-13T16:43:28.192Z,12.30
2017-12-13T16:45:56.914Z,11.70
2017-12-13T16:48:28.283Z,13.90
2017-12-13T16:50:58.218Z,11.80
2017-12-13T16:53:30.843Z,11.37
2017-12-13T16:55:59.764Z,13.70
2017-12-13T16:58:29.795Z,14.97
2017-12-13T17:00:58.919Z,13.10
2017-12-13T17:03:29.155Z,14.60
2017-12-13T17:05:59.124Z,16.47
2017-12-13T17:08:28.783Z,17.70
2017-12-13T17:10:57.953Z,19.47
2017-12-13T17:13:27.481Z,19.17
2017-12-13T17:15:58.635Z,22.03
2017-12-13T17:18:31.933Z,21.17
2017-12-13T17:21:01.710Z,21.97
2017-12-13T17:23:31.864Z,23.80
2017-12-13T17:26:01.684Z,25.83
2017-12-13T17:28:32.741Z,27.63
2017-12-13T17:31:02.494Z,26.40
2017-12-13T17:33:31.539Z,28.57
2017-12-13T17:36:04.311Z,26.37
2017-12-13T17:38:41.772Z,26.90
2017-12-13T17:41:12.482Z,28.00
2017-12-13T17:43:41.753Z,28.07
2017-12-13T17:48:57.148Z,27.90
2017-12-13T17:51:26.849Z,29.13
2017-12-13T17:53:55.373Z,28.67
2017-12-13T17:56:24.609Z,28.90
2017-12-13T17:58:54.110Z,27.97
2017-12-13T18:01:22.635Z,26.60
2017-12-13T18:03:51.079Z,25.90
2017-12-13T18:06:20.533Z,25.80
2017-12-13T18:08:48.910Z,26.93
2017-12-13T18:11:18.041Z,26.10
2017-12-13T18:13:46.408Z,26.30
2017-12-13T18:16:17.583Z,26.63
2017-12-13T18:18:49.951Z,24.67
2017-12-13T18:21:18.981Z,26.30
2017-12-13T18:23:47.296Z,25.70
2017-12-13T18:26:16.409Z,28.00
2017-12-13T18:28:49.918Z,28.77
2017-12-13T18:31:23.892Z,28.50
2017-12-13T18:33:53.250Z,27.00
2017-12-13T18:36:21.539Z,26.90
2017-12-13T18:38:52.423Z,25.80
2017-12-13T18:41:24.480Z,26.20
2017-12-13T18:43:57.570Z,27.97
2017-12-13T18:46:26.457Z,28.57
2017-12-13T18:48:55.818Z,27.73
2017-12-13T18:51:26.401Z,27.33
2017-12-13T18:53:56.011Z,28.60
2017-12-13T18:56:26.226Z,26.63
2017-12-13T18:58:57.478Z,29.37
2017-12-13T19:01:25.973Z,27.67
2017-12-13T19:03:54.304Z,28.10
2017-12-13T19:06:22.597Z,27.27
2017-12-13T19:08:50.955Z,27.33
2017-12-13T19:11:20.065Z,24.43
2017-12-13T19:13:48.380Z,23.10
2017-12-13T19:16:16.699Z,24.30
2017-12-13T19:18:45.790Z,23.63
2017-12-13T19:21:14.100Z,23.40
2017-12-13T19:23:43.164Z,22.33
2017-12-13T19:26:11.471Z,11.90
2017-12-13T19:28:40.526Z,3.67
2017-12-13T19:31:08.850Z,3.77
2017-12-13T19:33:37.154Z,1.60
2017-12-13T19:36:05.471Z,2.20
2017-12-13T19:38:33.906Z,1.00
2017-12-13T19:41:02.973Z,1.50
2017-12-13T19:43:32.071Z,1.30
2017-12-13T19:46:00.400Z,1.63
2017-12-13T19:48:28.806Z,1.60
2017-12-13T19:50:57.787Z,2.27
2017-12-13T19:53:26.092Z,2.33
2017-12-13T19:55:54.380Z,2.03
2017-12-13T19:58:22.706Z,2.17
2017-12-13T20:00:51.767Z,2.67
2017-12-13T20:03:20.080Z,2.93
2017-12-13T20:05:49.141Z,1.93
2017-12-13T20:08:17.444Z,2.30
2017-12-13T20:10:45.755Z,3.17
2017-12-13T20:13:14.074Z,1.83
2017-12-13T20:15:42.371Z,1.90
2017-12-13T20:18:10.683Z,1.93
2017-12-13T20:20:39.737Z,2.70
2017-12-13T20:23:08.061Z,2.93
2017-12-13T20:25:37.146Z,2.70
2017-12-13T20:28:05.440Z,3.23
2017-12-13T20:30:34.550Z,4.20
2017-12-13T20:33:03.932Z,4.80
2017-12-13T20:35:32.251Z,4.33
2017-12-13T20:38:00.538Z,3.93
2017-12-13T20:40:28.832Z,3.57
2017-12-13T20:42:57.128Z,2.70
2017-12-13T20:45:26.189Z,3.10
2017-12-13T20:47:54.512Z,7.13
2017-12-13T20:50:23.621Z,14.50
2017-12-13T20:52:51.950Z,5.43
2017-12-13T20:55:21.039Z,4.23
2017-12-13T20:57:50.154Z,3.80
2017-12-13T21:00:18.460Z,6.87
2017-12-13T21:02:46.740Z,4.90
2017-12-13T21:05:15.033Z,3.70
2017-12-13T21:07:43.315Z,3.20
2017-12-13T21:10:11.685Z,3.27
2017-12-13T21:12:39.991Z,2.67
2017-12-13T21:15:08.294Z,2.60
2017-12-13T21:17:36.643Z,3.30
2017-12-13T21:20:05.116Z,4.00
2017-12-13T21:22:33.423Z,3.03
2017-12-13T21:25:02.465Z,3.50
2017-12-13T21:27:31.680Z,3.60
2017-12-13T21:29:59.991Z,4.17
2017-12-13T21:32:28.301Z,3.90
2017-12-13T21:34:56.604Z,3.70
2017-12-13T21:37:25.661Z,3.77
2017-12-13T21:39:53.965Z,7.00
2017-12-13T21:42:22.260Z,5.23
2017-12-13T21:44:51.358Z,9.80
2017-12-13T21:47:20.436Z,5.77
2017-12-13T21:49:48.749Z,6.07
2017-12-13T21:52:17.806Z,3.77
2017-12-13T21:54:46.113Z,4.40
2017-12-13T21:57:14.395Z,3.23
2017-12-13T21:59:42.692Z,2.80
2017-12-13T22:02:11.751Z,3.77
2017-12-13T22:04:40.820Z,2.90
2017-12-13T22:07:09.131Z,3.20
2017-12-13T22:09:37.420Z,3.50
2017-12-13T22:12:05.712Z,3.20
2017-12-13T22:14:34.023Z,2.83
2017-12-13T22:17:02.313Z,3.27
2017-12-13T22:19:30.613Z,3.03
2017-12-13T22:21:58.925Z,2.70
2017-12-13T22:24:27.228Z,2.73
2017-12-13T22:26:56.294Z,2.97
2017-12-13T22:29:24.587Z,2.87
2017-12-13T22:31:52.899Z,3.37
2017-12-13T22:34:21.969Z,3.10
2017-12-13T22:36:50.273Z,2.90
2017-12-13T22:39:19.341Z,3.13
2017-12-13T22:41:47.636Z,3.17
2017-12-13T22:44:15.948Z,3.00
2017-12-13T22:46:44.257Z,2.27
2017-12-13T22:49:12.543Z,3.60
2017-12-13T22:51:40.843Z,2.60
2017-12-13T22:54:09.679Z,3.23
2017-12-13T22:56:38.784Z,2.80
2017-12-13T22:59:07.433Z,3.50
2017-12-13T23:01:35.785Z,3.20
2017-12-13T23:04:05.232Z,2.70
2017-12-13T23:06:34.565Z,3.20
2017-12-13T23:09:03.691Z,3.03
2017-12-13T23:11:39.327Z,3.20
2017-12-13T23:14:07.927Z,3.40
2017-12-13T23:16:36.230Z,2.93
2017-12-13T23:19:04.532Z,3.10
2017-12-13T23:21:32.930Z,3.00
2017-12-13T23:24:01.218Z,2.90
2017-12-13T23:26:30.297Z,3.10
2017-12-13T23:28:58.662Z,3.30
2017-12-13T23:31:26.950Z,3.20
2017-12-13T23:33:55.259Z,2.83
2017-12-13T23:36:23.556Z,2.70
2017-12-13T23:38:52.630Z,2.63
2017-12-13T23:41:20.918Z,2.30
2017-12-13T23:43:50.176Z,2.80
2017-12-13T23:46:18.469Z,2.70
2017-12-13T23:48:46.762Z,2.50
2017-12-13T23:51:15.068Z,2.73
2017-12-13T23:53:43.373Z,2.30
2017-12-13T23:56:11.730Z,2.97
2017-12-13T23:58:40.037Z,3.33
